Terminal Aerodrome Forecast
Issued by NWS

Home | Current Version | Previous Version | Graphics & Text | Print | Product List | Glossary On
Versions: 1 2 3 4 5 6 7 8 9 10 11 12 13 14 15 16 17 18 19 20 21 22 23 24 25 26 27 28 29 30 31 32 33 34 35 36 37
000
FTUS43 KLOT 130900 AAB
TAFORD
TAF AMD
KORD 130912Z 1309/1412 31010KT P6SM FEW040
      TEMPO 1309/1312 BKN009
     FM131600 35010KT P6SM FEW030 SCT250
     FM132000 03007KT P6SM FEW250
     FM140000 VRB04KT P6SM FEW250=

USA.gov is the U.S. government's official web portal to all federal, state and local government web resources and services.